sensor_id;sensor_type;location;lat;lon;timestamp;temperature;humidity
14995;DHT22;7593;49.006;8.372;2023-04-01T00:01:02;9.90;99.90
14995;DHT22;7593;49.006;8.372;2023-04-01T00:03:29;9.90;99.90
14995;DHT22;7593;49.006;8.372;2023-04-01T00:05:57;9.90;99.90
14995;DHT22;7593;49.006;8.372;2023-04-01T00:08:24;9.90;99.90
14995;DHT22;7593;49.006;8.372;2023-04-01T00:10:52;9.90;99.90
14995;DHT22;7593;49.006;8.372;2023-04-01T00:13:20;9.90;99.90
14995;DHT22;7593;49.006;8.372;2023-04-01T00:15:48;9.90;99.90
14995;DHT22;7593;49.006;8.372;2023-04-01T00:18:15;9.90;99.90
14995;DHT22;7593;49.006;8.372;2023-04-01T00:20:44;9.90;99.90
14995;DHT22;7593;49.006;8.372;2023-04-01T00:23:10;9.90;99.90
14995;DHT22;7593;49.006;8.372;2023-04-01T00:25:37;9.80;99.90
14995;DHT22;7593;49.006;8.372;2023-04-01T00:28:04;9.80;99.90
14995;DHT22;7593;49.006;8.372;2023-04-01T00:30:32;9.80;99.90
14995;DHT22;7593;49.006;8.372;2023-04-01T00:32:59;9.80;99.90
14995;DHT22;7593;49.006;8.372;2023-04-01T00:35:26;9.80;99.90
14995;DHT22;7593;49.006;8.372;2023-04-01T00:37:52;9.90;99.90
14995;DHT22;7593;49.006;8.372;2023-04-01T00:40:26;9.80;99.90
14995;DHT22;7593;49.006;8.372;2023-04-01T00:42:53;9.90;99.90
14995;DHT22;7593;49.006;8.372;2023-04-01T00:45:27;9.90;99.90
14995;DHT22;7593;49.006;8.372;2023-04-01T00:47:55;9.90;99.90
14995;DHT22;7593;49.006;8.372;2023-04-01T00:50:24;9.90;99.90
14995;DHT22;7593;49.006;8.372;2023-04-01T00:52:52;9.90;99.90
14995;DHT22;7593;49.006;8.372;2023-04-01T00:55:20;9.90;99.90
14995;DHT22;7593;49.006;8.372;2023-04-01T00:57:48;9.90;99.90
14995;DHT22;7593;49.006;8.372;2023-04-01T01:00:17;9.90;99.90
14995;DHT22;7593;49.006;8.372;2023-04-01T01:02:45;9.90;99.90
14995;DHT22;7593;49.006;8.372;2023-04-01T01:05:15;10.00;99.90
14995;DHT22;7593;49.006;8.372;2023-04-01T01:07:45;9.90;99.90
14995;DHT22;7593;49.006;8.372;2023-04-01T01:10:16;9.90;99.90
14995;DHT22;7593;49.006;8.372;2023-04-01T01:12:46;10.00;99.90
14995;DHT22;7593;49.006;8.372;2023-04-01T01:15:20;10.00;99.90
14995;DHT22;7593;49.006;8.372;2023-04-01T01:17:55;10.00;99.90
14995;DHT22;7593;49.006;8.372;2023-04-01T01:23:56;10.00;99.90
14995;DHT22;7593;49.006;8.372;2023-04-01T01:26:37;9.90;99.90
14995;DHT22;7593;49.006;8.372;2023-04-01T01:29:16;9.90;99.90
14995;DHT22;7593;49.006;8.372;2023-04-01T01:31:53;9.90;99.90
14995;DHT22;7593;49.006;8.372;2023-04-01T01:34:23;9.80;99.90
14995;DHT22;7593;49.006;8.372;2023-04-01T01:36:56;9.70;99.90
14995;DHT22;7593;49.006;8.372;2023-04-01T01:39:26;9.70;99.90
14995;DHT22;7593;49.006;8.372;2023-04-01T01:41:56;9.70;99.90
14995;DHT22;7593;49.006;8.372;2023-04-01T01:44:24;9.70;99.90
14995;DHT22;7593;49.006;8.372;2023-04-01T01:46:52;9.50;99.90
14995;DHT22;7593;49.006;8.372;2023-04-01T01:49:19;9.30;99.90
14995;DHT22;7593;49.006;8.372;2023-04-01T01:51:46;9.20;99.90
14995;DHT22;7593;49.006;8.372;2023-04-01T01:54:16;9.10;99.90
14995;DHT22;7593;49.006;8.372;2023-04-01T01:56:45;9.10;99.90
14995;DHT22;7593;49.006;8.372;2023-04-01T01:59:14;9.00;99.90
14995;DHT22;7593;49.006;8.372;2023-04-01T02:01:44;9.10;99.90
14995;DHT22;7593;49.006;8.372;2023-04-01T02:04:13;9.20;99.90
14995;DHT22;7593;49.006;8.372;2023-04-01T02:06:44;9.20;99.90
14995;DHT22;7593;49.006;8.372;2023-04-01T02:09:13;9.20;99.90
14995;DHT22;7593;49.006;8.372;2023-04-01T02:11:43;9.20;99.90
14995;DHT22;7593;49.006;8.372;2023-04-01T02:14:15;9.20;99.90
14995;DHT22;7593;49.006;8.372;2023-04-01T02:16:45;9.20;99.90
14995;DHT22;7593;49.006;8.372;2023-04-01T02:19:15;9.20;99.90
14995;DHT22;7593;49.006;8.372;2023-04-01T02:21:49;9.30;99.90
14995;DHT22;7593;49.006;8.372;2023-04-01T02:24:19;9.30;99.90
14995;DHT22;7593;49.006;8.372;2023-04-01T02:26:50;9.30;99.90
14995;DHT22;7593;49.006;8.372;2023-04-01T02:29:19;9.30;99.90
14995;DHT22;7593;49.006;8.372;2023-04-01T02:31:46;9.30;99.90
14995;DHT22;7593;49.006;8.372;2023-04-01T02:34:13;9.30;99.90
14995;DHT22;7593;49.006;8.372;2023-04-01T02:36:41;9.30;99.90
14995;DHT22;7593;49.006;8.372;2023-04-01T02:39:08;9.30;99.90
14995;DHT22;7593;49.006;8.372;2023-04-01T02:41:39;9.30;99.90
14995;DHT22;7593;49.006;8.372;2023-04-01T02:44:08;9.30;99.90
14995;DHT22;7593;49.006;8.372;2023-04-01T02:46:36;9.30;99.90
14995;DHT22;7593;49.006;8.372;2023-04-01T02:49:03;9.30;99.90
14995;DHT22;7593;49.006;8.372;2023-04-01T02:51:30;9.30;99.90
14995;DHT22;7593;49.006;8.372;2023-04-01T02:53:56;9.20;99.90
14995;DHT22;7593;49.006;8.372;2023-04-01T02:56:23;9.20;99.90
14995;DHT22;7593;49.006;8.372;2023-04-01T02:58:51;9.30;99.90
14995;DHT22;7593;49.006;8.372;2023-04-01T03:01:20;9.30;99.90
14995;DHT22;7593;49.006;8.372;2023-04-01T03:03:47;9.40;99.90
14995;DHT22;7593;49.006;8.372;2023-04-01T03:06:15;9.40;99.90
14995;DHT22;7593;49.006;8.372;2023-04-01T03:08:43;9.40;99.90
14995;DHT22;7593;49.006;8.372;2023-04-01T03:11:10;9.40;99.90
14995;DHT22;7593;49.006;8.372;2023-04-01T03:13:37;9.40;99.90
14995;DHT22;7593;49.006;8.372;2023-04-01T03:16:05;9.30;99.90
14995;DHT22;7593;49.006;8.372;2023-04-01T03:18:33;9.30;99.90
14995;DHT22;7593;49.006;8.372;2023-04-01T03:21:15;9.30;99.90
14995;DHT22;7593;49.006;8.372;2023-04-01T03:23:42;9.30;99.90
14995;DHT22;7593;49.006;8.372;2023-04-01T03:26:09;9.20;99.90
14995;DHT22;7593;49.006;8.372;2023-04-01T03:28:37;9.20;99.90
14995;DHT22;7593;49.006;8.372;2023-04-01T03:31:03;9.20;99.90
14995;DHT22;7593;49.006;8.372;2023-04-01T03:33:30;9.30;99.90
14995;DHT22;7593;49.006;8.372;2023-04-01T03:35:59;9.30;99.90
14995;DHT22;7593;49.006;8.372;2023-04-01T03:38:26;9.30;99.90
14995;DHT22;7593;49.006;8.372;2023-04-01T03:40:52;9.40;99.90
14995;DHT22;7593;49.006;8.372;2023-04-01T03:43:19;9.30;99.90
14995;DHT22;7593;49.006;8.372;2023-04-01T03:45:49;9.40;99.90
14995;DHT22;7593;49.006;8.372;2023-04-01T03:48:16;9.40;99.90
14995;DHT22;7593;49.006;8.372;2023-04-01T03:50:43;9.40;99.90
14995;DHT22;7593;49.006;8.372;2023-04-01T03:53:12;9.40;99.90
14995;DHT22;7593;49.006;8.372;2023-04-01T03:55:39;9.40;99.90
14995;DHT22;7593;49.006;8.372;2023-04-01T03:58:07;9.40;99.90
14995;DHT22;7593;49.006;8.372;2023-04-01T04:00:34;9.40;99.90
14995;DHT22;7593;49.006;8.372;2023-04-01T04:03:01;9.50;99.90
14995;DHT22;7593;49.006;8.372;2023-04-01T04:05:28;9.50;99.90
14995;DHT22;7593;49.006;8.372;2023-04-01T04:07:55;9.50;99.90
14995;DHT22;7593;49.006;8.372;2023-04-01T04:10:23;9.50;99.90
14995;DHT22;7593;49.006;8.372;2023-04-01T04:12:50;9.50;99.90
14995;DHT22;7593;49.006;8.372;2023-04-01T04:15:17;9.50;99.90
14995;DHT22;7593;49.006;8.372;2023-04-01T04:17:45;9.50;99.90
14995;DHT22;7593;49.006;8.372;2023-04-01T04:20:12;9.60;99.90
14995;DHT22;7593;49.006;8.372;2023-04-01T04:22:39;9.60;99.90
14995;DHT22;7593;49.006;8.372;2023-04-01T04:25:06;9.60;99.90
14995;DHT22;7593;49.006;8.372;2023-04-01T04:27:35;9.60;99.90
14995;DHT22;7593;49.006;8.372;2023-04-01T04:30:02;9.60;99.90
14995;DHT22;7593;49.006;8.372;2023-04-01T04:32:30;9.60;99.90
14995;DHT22;7593;49.006;8.372;2023-04-01T04:34:56;9.60;99.90
14995;DHT22;7593;49.006;8.372;2023-04-01T04:37:23;9.70;99.90
14995;DHT22;7593;49.006;8.372;2023-04-01T04:39:51;9.70;99.90
14995;DHT22;7593;49.006;8.372;2023-04-01T04:42:17;9.70;99.90
14995;DHT22;7593;49.006;8.372;2023-04-01T04:44:46;9.70;99.90
14995;DHT22;7593;49.006;8.372;2023-04-01T04:47:13;9.70;99.90
14995;DHT22;7593;49.006;8.372;2023-04-01T04:49:39;9.70;99.90
14995;DHT22;7593;49.006;8.372;2023-04-01T04:52:06;9.70;99.90
14995;DHT22;7593;49.006;8.372;2023-04-01T04:54:33;9.70;99.90
14995;DHT22;7593;49.006;8.372;2023-04-01T04:57:00;9.70;99.90
14995;DHT22;7593;49.006;8.372;2023-04-01T04:59:26;9.70;99.90
14995;DHT22;7593;49.006;8.372;2023-04-01T05:01:55;9.70;99.90
14995;DHT22;7593;49.006;8.372;2023-04-01T05:04:22;9.70;99.90
14995;DHT22;7593;49.006;8.372;2023-04-01T05:06:48;9.70;99.90
14995;DHT22;7593;49.006;8.372;2023-04-01T05:09:17;9.70;99.90
14995;DHT22;7593;49.006;8.372;2023-04-01T05:11:43;9.70;99.90
14995;DHT22;7593;49.006;8.372;2023-04-01T05:14:13;9.70;99.90
14995;DHT22;7593;49.006;8.372;2023-04-01T05:16:39;9.70;99.90
14995;DHT22;7593;49.006;8.372;2023-04-01T05:19:07;9.60;99.90
14995;DHT22;7593;49.006;8.372;2023-04-01T05:21:34;9.50;99.90
14995;DHT22;7593;49.006;8.372;2023-04-01T05:24:01;9.50;99.90
14995;DHT22;7593;49.006;8.372;2023-04-01T05:26:28;9.40;99.90
14995;DHT22;7593;49.006;8.372;2023-04-01T05:28:55;9.40;99.90
14995;DHT22;7593;49.006;8.372;2023-04-01T05:31:21;9.30;99.90
14995;DHT22;7593;49.006;8.372;2023-04-01T05:33:49;9.20;99.90
14995;DHT22;7593;49.006;8.372;2023-04-01T05:36:17;9.00;99.90
14995;DHT22;7593;49.006;8.372;2023-04-01T05:38:44;8.80;99.90
14995;DHT22;7593;49.006;8.372;2023-04-01T05:41:12;8.70;99.90
14995;DHT22;7593;49.006;8.372;2023-04-01T05:43:40;8.60;99.90
14995;DHT22;7593;49.006;8.372;2023-04-01T05:46:07;8.50;99.90
14995;DHT22;7593;49.006;8.372;2023-04-01T05:48:34;8.40;99.90
14995;DHT22;7593;49.006;8.372;2023-04-01T05:51:02;8.30;99.90
14995;DHT22;7593;49.006;8.372;2023-04-01T05:53:30;8.20;99.90
14995;DHT22;7593;49.006;8.372;2023-04-01T05:55:57;8.10;99.90
14995;DHT22;7593;49.006;8.372;2023-04-01T05:58:28;8.10;99.90
14995;DHT22;7593;49.006;8.372;2023-04-01T06:01:00;8.10;99.90
14995;DHT22;7593;49.006;8.372;2023-04-01T06:03:28;8.00;99.90
14995;DHT22;7593;49.006;8.372;2023-04-01T06:05:54;8.00;99.90
14995;DHT22;7593;49.006;8.372;2023-04-01T06:08:21;8.00;99.90
14995;DHT22;7593;49.006;8.372;2023-04-01T06:10:57;7.90;99.90
14995;DHT22;7593;49.006;8.372;2023-04-01T06:13:36;7.90;99.90
14995;DHT22;7593;49.006;8.372;2023-04-01T06:16:11;7.90;99.90
14995;DHT22;7593;49.006;8.372;2023-04-01T06:19:00;7.80;99.90
14995;DHT22;7593;49.006;8.372;2023-04-01T06:22:02;7.80;99.90
14995;DHT22;7593;49.006;8.372;2023-04-01T06:24:45;7.80;99.90
14995;DHT22;7593;49.006;8.372;2023-04-01T06:27:24;7.90;99.90
14995;DHT22;7593;49.006;8.372;2023-04-01T06:30:01;7.90;99.90
14995;DHT22;7593;49.006;8.372;2023-04-01T06:32:55;7.90;99.90
14995;DHT22;7593;49.006;8.372;2023-04-01T06:35:31;7.90;99.90
14995;DHT22;7593;49.006;8.372;2023-04-01T06:38:26;7.90;99.90
14995;DHT22;7593;49.006;8.372;2023-04-01T06:41:21;8.00;99.90
14995;DHT22;7593;49.006;8.372;2023-04-01T06:44:00;8.00;99.90
14995;DHT22;7593;49.006;8.372;2023-04-01T06:46:38;8.00;99.90
14995;DHT22;7593;49.006;8.372;2023-04-01T06:49:26;8.00;99.90
14995;DHT22;7593;49.006;8.372;2023-04-01T06:52:00;8.10;99.90
14995;DHT22;7593;49.006;8.372;2023-04-01T06:54:34;8.10;99.90
14995;DHT22;7593;49.006;8.372;2023-04-01T06:57:05;8.10;99.90
14995;DHT22;7593;49.006;8.372;2023-04-01T06:59:37;8.20;99.90
14995;DHT22;7593;49.006;8.372;2023-04-01T07:02:10;8.30;99.90
14995;DHT22;7593;49.006;8.372;2023-04-01T07:04:45;8.30;99.90
14995;DHT22;7593;49.006;8.372;2023-04-01T07:07:15;8.30;99.90
14995;DHT22;7593;49.006;8.372;2023-04-01T07:09:48;8.30;99.90
14995;DHT22;7593;49.006;8.372;2023-04-01T07:12:23;8.30;99.90
14995;DHT22;7593;49.006;8.372;2023-04-01T07:14:56;8.30;99.90
14995;DHT22;7593;49.006;8.372;2023-04-01T07:17:28;8.30;99.90
14995;DHT22;7593;49.006;8.372;2023-04-01T07:19:59;8.30;99.90
14995;DHT22;7593;49.006;8.372;2023-04-01T07:22:31;8.30;99.90
14995;DHT22;7593;49.006;8.372;2023-04-01T07:25:02;8.30;99.90
14995;DHT22;7593;49.006;8.372;2023-04-01T07:27:29;8.30;99.90
14995;DHT22;7593;49.006;8.372;2023-04-01T07:29:57;8.20;99.90
14995;DHT22;7593;49.006;8.372;2023-04-01T07:32:32;8.20;99.90
14995;DHT22;7593;49.006;8.372;2023-04-01T07:35:13;8.20;99.90
14995;DHT22;7593;49.006;8.372;2023-04-01T07:37:55;8.10;99.90
14995;DHT22;7593;49.006;8.372;2023-04-01T07:40:30;8.10;99.90
14995;DHT22;7593;49.006;8.372;2023-04-01T07:43:17;8.10;99.90
14995;DHT22;7593;49.006;8.372;2023-04-01T07:45:57;8.10;99.90
14995;DHT22;7593;49.006;8.372;2023-04-01T07:48:32;8.10;99.90
14995;DHT22;7593;49.006;8.372;2023-04-01T07:51:02;8.00;99.90
14995;DHT22;7593;49.006;8.372;2023-04-01T07:53:34;8.00;99.90
14995;DHT22;7593;49.006;8.372;2023-04-01T07:56:07;8.00;99.90
14995;DHT22;7593;49.006;8.372;2023-04-01T07:58:43;8.00;99.90
14995;DHT22;7593;49.006;8.372;2023-04-01T08:01:19;7.90;99.90
14995;DHT22;7593;49.006;8.372;2023-04-01T08:04:09;8.00;99.90
14995;DHT22;7593;49.006;8.372;2023-04-01T08:06:42;8.00;99.90
14995;DHT22;7593;49.006;8.372;2023-04-01T08:09:20;8.00;99.90
14995;DHT22;7593;49.006;8.372;2023-04-01T08:11:57;8.00;99.90
14995;DHT22;7593;49.006;8.372;2023-04-01T08:14:31;8.00;99.90
14995;DHT22;7593;49.006;8.372;2023-04-01T08:17:04;8.10;99.90
14995;DHT22;7593;49.006;8.372;2023-04-01T08:19:48;8.10;99.90
14995;DHT22;7593;49.006;8.372;2023-04-01T08:22:26;8.20;99.90
14995;DHT22;7593;49.006;8.372;2023-04-01T08:24:55;8.20;99.90
14995;DHT22;7593;49.006;8.372;2023-04-01T08:27:28;8.30;99.90
14995;DHT22;7593;49.006;8.372;2023-04-01T08:30:01;8.30;99.90
14995;DHT22;7593;49.006;8.372;2023-04-01T08:32:34;8.40;99.90
14995;DHT22;7593;49.006;8.372;2023-04-01T08:35:08;8.40;99.90
14995;DHT22;7593;49.006;8.372;2023-04-01T08:37:38;8.40;99.90
14995;DHT22;7593;49.006;8.372;2023-04-01T08:40:25;8.40;99.90
14995;DHT22;7593;49.006;8.372;2023-04-01T08:43:03;8.50;99.90
14995;DHT22;7593;49.006;8.372;2023-04-01T08:46:02;8.50;99.90
14995;DHT22;7593;49.006;8.372;2023-04-01T08:49:00;8.50;99.90
14995;DHT22;7593;49.006;8.372;2023-04-01T08:51:50;8.50;99.90
14995;DHT22;7593;49.006;8.372;2023-04-01T08:54:37;8.50;99.90
14995;DHT22;7593;49.006;8.372;2023-04-01T08:57:15;8.50;99.90
14995;DHT22;7593;49.006;8.372;2023-04-01T08:59:53;8.50;99.90
14995;DHT22;7593;49.006;8.372;2023-04-01T09:08:24;8.50;99.90
14995;DHT22;7593;49.006;8.372;2023-04-01T09:11:02;8.60;99.90
14995;DHT22;7593;49.006;8.372;2023-04-01T09:14:05;8.60;99.90
14995;DHT22;7593;49.006;8.372;2023-04-01T09:17:01;8.60;99.90
14995;DHT22;7593;49.006;8.372;2023-04-01T09:19:50;8.50;99.90
14995;DHT22;7593;49.006;8.372;2023-04-01T09:22:35;8.50;99.90
14995;DHT22;7593;49.006;8.372;2023-04-01T09:25:29;8.50;99.90
14995;DHT22;7593;49.006;8.372;2023-04-01T09:28:00;8.50;99.90
14995;DHT22;7593;49.006;8.372;2023-04-01T09:30:37;8.50;99.90
14995;DHT22;7593;49.006;8.372;2023-04-01T09:36:22;8.50;99.90
14995;DHT22;7593;49.006;8.372;2023-04-01T09:38:57;8.50;99.90
14995;DHT22;7593;49.006;8.372;2023-04-01T09:41:29;8.50;99.90
14995;DHT22;7593;49.006;8.372;2023-04-01T09:44:04;8.50;99.90
14995;DHT22;7593;49.006;8.372;2023-04-01T09:46:56;8.50;99.90
14995;DHT22;7593;49.006;8.372;2023-04-01T09:49:40;8.50;99.90
14995;DHT22;7593;49.006;8.372;2023-04-01T09:52:29;8.50;99.90
14995;DHT22;7593;49.006;8.372;2023-04-01T09:55:13;8.50;99.90
14995;DHT22;7593;49.006;8.372;2023-04-01T09:58:02;8.50;99.90
14995;DHT22;7593;49.006;8.372;2023-04-01T10:01:01;8.50;99.90
14995;DHT22;7593;49.006;8.372;2023-04-01T10:06:58;8.60;99.90
14995;DHT22;7593;49.006;8.372;2023-04-01T10:10:02;8.60;99.90
14995;DHT22;7593;49.006;8.372;2023-04-01T10:12:55;8.60;99.90
14995;DHT22;7593;49.006;8.372;2023-04-01T10:15:39;8.60;99.90
14995;DHT22;7593;49.006;8.372;2023-04-01T10:18:36;8.60;99.90
14995;DHT22;7593;49.006;8.372;2023-04-01T10:21:26;8.60;99.90
14995;DHT22;7593;49.006;8.372;2023-04-01T10:27:10;8.60;99.90
14995;DHT22;7593;49.006;8.372;2023-04-01T10:30:06;8.60;99.90
14995;DHT22;7593;49.006;8.372;2023-04-01T10:33:11;8.60;99.90
14995;DHT22;7593;49.006;8.372;2023-04-01T10:39:17;8.60;99.90
14995;DHT22;7593;49.006;8.372;2023-04-01T10:48:19;8.70;99.90
14995;DHT22;7593;49.006;8.372;2023-04-01T10:51:22;8.70;99.90
14995;DHT22;7593;49.006;8.372;2023-04-01T10:54:29;8.70;99.90
14995;DHT22;7593;49.006;8.372;2023-04-01T10:57:15;8.70;99.90
14995;DHT22;7593;49.006;8.372;2023-04-01T11:00:16;8.60;99.90
14995;DHT22;7593;49.006;8.372;2023-04-01T11:06:38;8.70;99.90
14995;DHT22;7593;49.006;8.372;2023-04-01T11:12:42;8.70;99.90
14995;DHT22;7593;49.006;8.372;2023-04-01T11:15:40;8.70;99.90
14995;DHT22;7593;49.006;8.372;2023-04-01T11:18:49;8.70;99.90
14995;DHT22;7593;49.006;8.372;2023-04-01T11:21:46;8.70;99.90
14995;DHT22;7593;49.006;8.372;2023-04-01T11:24:40;8.70;99.90
14995;DHT22;7593;49.006;8.372;2023-04-01T11:27:25;8.70;99.90
14995;DHT22;7593;49.006;8.372;2023-04-01T11:30:20;8.80;99.90
14995;DHT22;7593;49.006;8.372;2023-04-01T11:32:53;8.70;99.90
14995;DHT22;7593;49.006;8.372;2023-04-01T11:36:08;8.70;99.90
14995;DHT22;7593;49.006;8.372;2023-04-01T11:39:05;8.70;99.90
14995;DHT22;7593;49.006;8.372;2023-04-01T11:41:43;8.70;99.90
14995;DHT22;7593;49.006;8.372;2023-04-01T11:44:17;8.70;99.90
14995;DHT22;7593;49.006;8.372;2023-04-01T11:46:56;8.70;99.90
14995;DHT22;7593;49.006;8.372;2023-04-01T11:49:52;8.70;99.90
14995;DHT22;7593;49.006;8.372;2023-04-01T11:55:38;8.80;99.90
14995;DHT22;7593;49.006;8.372;2023-04-01T11:58:27;8.80;99.90
14995;DHT22;7593;49.006;8.372;2023-04-01T12:01:33;8.80;99.90
14995;DHT22;7593;49.006;8.372;2023-04-01T12:04:34;8.80;99.90
14995;DHT22;7593;49.006;8.372;2023-04-01T12:07:13;8.70;99.90
14995;DHT22;7593;49.006;8.372;2023-04-01T12:09:49;8.70;99.90
14995;DHT22;7593;49.006;8.372;2023-04-01T12:12:25;8.70;99.90
14995;DHT22;7593;49.006;8.372;2023-04-01T12:15:01;8.80;99.90
14995;DHT22;7593;49.006;8.372;2023-04-01T12:17:36;8.70;99.90
14995;DHT22;7593;49.006;8.372;2023-04-01T12:20:25;8.70;99.90
14995;DHT22;7593;49.006;8.372;2023-04-01T12:22:59;8.60;99.90
14995;DHT22;7593;49.006;8.372;2023-04-01T12:25:46;8.60;99.90
14995;DHT22;7593;49.006;8.372;2023-04-01T12:28:24;8.70;99.90
14995;DHT22;7593;49.006;8.372;2023-04-01T12:31:04;8.60;99.90
14995;DHT22;7593;49.006;8.372;2023-04-01T12:33:48;8.60;99.90
14995;DHT22;7593;49.006;8.372;2023-04-01T12:36:40;8.60;99.90
14995;DHT22;7593;49.006;8.372;2023-04-01T12:39:22;8.60;99.90
14995;DHT22;7593;49.006;8.372;2023-04-01T12:42:01;8.70;99.90
14995;DHT22;7593;49.006;8.372;2023-04-01T12:44:56;8.70;99.90
14995;DHT22;7593;49.006;8.372;2023-04-01T12:50:31;8.70;99.90
14995;DHT22;7593;49.006;8.372;2023-04-01T12:53:14;8.70;99.90
14995;DHT22;7593;49.006;8.372;2023-04-01T12:55:48;8.70;99.90
14995;DHT22;7593;49.006;8.372;2023-04-01T12:58:49;8.60;99.90
14995;DHT22;7593;49.006;8.372;2023-04-01T13:01:35;8.60;99.90
14995;DHT22;7593;49.006;8.372;2023-04-01T13:04:33;8.70;99.90
14995;DHT22;7593;49.006;8.372;2023-04-01T13:07:21;8.70;99.90
14995;DHT22;7593;49.006;8.372;2023-04-01T13:09:56;8.70;99.90
14995;DHT22;7593;49.006;8.372;2023-04-01T13:12:57;8.70;99.90
14995;DHT22;7593;49.006;8.372;2023-04-01T13:15:30;8.70;99.90
14995;DHT22;7593;49.006;8.372;2023-04-01T13:18:14;8.70;99.90
14995;DHT22;7593;49.006;8.372;2023-04-01T13:20:45;8.70;99.90
14995;DHT22;7593;49.006;8.372;2023-04-01T13:23:27;8.70;99.90
14995;DHT22;7593;49.006;8.372;2023-04-01T13:26:06;8.80;99.90
14995;DHT22;7593;49.006;8.372;2023-04-01T13:28:39;8.80;99.90
14995;DHT22;7593;49.006;8.372;2023-04-01T13:31:24;8.80;99.90
14995;DHT22;7593;49.006;8.372;2023-04-01T13:34:04;8.80;99.90
14995;DHT22;7593;49.006;8.372;2023-04-01T13:36:39;8.80;99.90
14995;DHT22;7593;49.006;8.372;2023-04-01T13:39:25;8.70;99.90
14995;DHT22;7593;49.006;8.372;2023-04-01T13:42:10;8.70;99.90
14995;DHT22;7593;49.006;8.372;2023-04-01T13:44:42;8.60;99.90
14995;DHT22;7593;49.006;8.372;2023-04-01T13:47:27;8.50;99.90
14995;DHT22;7593;49.006;8.372;2023-04-01T13:50:12;8.60;99.90
14995;DHT22;7593;49.006;8.372;2023-04-01T13:53:17;8.60;99.90
14995;DHT22;7593;49.006;8.372;2023-04-01T13:56:04;8.60;99.90
14995;DHT22;7593;49.006;8.372;2023-04-01T13:59:19;8.60;99.90
14995;DHT22;7593;49.006;8.372;2023-04-01T14:01:56;8.70;99.90
14995;DHT22;7593;49.006;8.372;2023-04-01T14:04:39;8.70;99.90
14995;DHT22;7593;49.006;8.372;2023-04-01T14:07:26;8.70;99.90
14995;DHT22;7593;49.006;8.372;2023-04-01T14:10:07;8.80;99.90
14995;DHT22;7593;49.006;8.372;2023-04-01T14:12:43;8.70;99.90
14995;DHT22;7593;49.006;8.372;2023-04-01T14:15:29;8.70;99.90
14995;DHT22;7593;49.006;8.372;2023-04-01T14:18:10;8.70;99.90
14995;DHT22;7593;49.006;8.372;2023-04-01T14:20:41;8.70;99.90
14995;DHT22;7593;49.006;8.372;2023-04-01T14:23:46;8.70;99.90
14995;DHT22;7593;49.006;8.372;2023-04-01T14:26:26;8.60;99.90
14995;DHT22;7593;49.006;8.372;2023-04-01T14:29:07;8.60;99.90
14995;DHT22;7593;49.006;8.372;2023-04-01T14:31:45;8.60;99.90
14995;DHT22;7593;49.006;8.372;2023-04-01T14:34:31;8.60;99.90
14995;DHT22;7593;49.006;8.372;2023-04-01T14:37:15;8.60;99.90
14995;DHT22;7593;49.006;8.372;2023-04-01T14:40:05;8.70;99.90
14995;DHT22;7593;49.006;8.372;2023-04-01T14:43:04;8.70;99.90
14995;DHT22;7593;49.006;8.372;2023-04-01T14:45:51;8.70;99.90
14995;DHT22;7593;49.006;8.372;2023-04-01T14:48:27;8.80;99.90
14995;DHT22;7593;49.006;8.372;2023-04-01T14:51:03;8.70;99.90
14995;DHT22;7593;49.006;8.372;2023-04-01T14:53:37;8.80;99.90
14995;DHT22;7593;49.006;8.372;2023-04-01T14:56:12;8.80;99.90
14995;DHT22;7593;49.006;8.372;2023-04-01T14:58:44;8.90;99.90
14995;DHT22;7593;49.006;8.372;2023-04-01T15:01:20;8.90;99.90
14995;DHT22;7593;49.006;8.372;2023-04-01T15:03:57;8.90;99.90
14995;DHT22;7593;49.006;8.372;2023-04-01T15:06:40;8.90;99.90
14995;DHT22;7593;49.006;8.372;2023-04-01T15:09:16;8.80;99.90
14995;DHT22;7593;49.006;8.372;2023-04-01T15:11:56;8.90;99.90
14995;DHT22;7593;49.006;8.372;2023-04-01T15:14:34;8.90;99.90
14995;DHT22;7593;49.006;8.372;2023-04-01T15:17:18;8.90;99.90
14995;DHT22;7593;49.006;8.372;2023-04-01T15:20:02;8.90;99.90
14995;DHT22;7593;49.006;8.372;2023-04-01T15:22:47;8.90;99.90
14995;DHT22;7593;49.006;8.372;2023-04-01T15:25:25;8.90;99.90
14995;DHT22;7593;49.006;8.372;2023-04-01T15:28:01;9.00;99.90
14995;DHT22;7593;49.006;8.372;2023-04-01T15:30:36;9.10;99.90
14995;DHT22;7593;49.006;8.372;2023-04-01T15:33:17;9.10;99.90
14995;DHT22;7593;49.006;8.372;2023-04-01T15:35:51;9.10;99.90
14995;DHT22;7593;49.006;8.372;2023-04-01T15:38:31;9.10;99.90
14995;DHT22;7593;49.006;8.372;2023-04-01T15:41:06;9.10;99.90
14995;DHT22;7593;49.006;8.372;2023-04-01T15:43:41;9.10;99.90
14995;DHT22;7593;49.006;8.372;2023-04-01T15:46:25;9.10;99.90
14995;DHT22;7593;49.006;8.372;2023-04-01T15:49:03;9.00;99.90
14995;DHT22;7593;49.006;8.372;2023-04-01T15:52:02;9.00;99.90
14995;DHT22;7593;49.006;8.372;2023-04-01T15:57:38;9.00;99.90
14995;DHT22;7593;49.006;8.372;2023-04-01T16:00:21;9.00;99.90
14995;DHT22;7593;49.006;8.372;2023-04-01T16:03:00;9.00;99.90
14995;DHT22;7593;49.006;8.372;2023-04-01T16:05:39;8.90;99.90
14995;DHT22;7593;49.006;8.372;2023-04-01T16:08:30;8.80;99.90
14995;DHT22;7593;49.006;8.372;2023-04-01T16:11:12;8.90;99.90
14995;DHT22;7593;49.006;8.372;2023-04-01T16:13:48;8.90;99.90
14995;DHT22;7593;49.006;8.372;2023-04-01T16:16:28;8.90;99.90
14995;DHT22;7593;49.006;8.372;2023-04-01T16:19:15;8.90;99.90
14995;DHT22;7593;49.006;8.372;2023-04-01T16:21:48;8.90;99.90
14995;DHT22;7593;49.006;8.372;2023-04-01T16:24:22;8.90;99.90
14995;DHT22;7593;49.006;8.372;2023-04-01T16:26:53;9.00;99.90
14995;DHT22;7593;49.006;8.372;2023-04-01T16:29:27;9.00;99.90
14995;DHT22;7593;49.006;8.372;2023-04-01T16:32:12;8.90;99.90
14995;DHT22;7593;49.006;8.372;2023-04-01T16:34:44;8.90;99.90
14995;DHT22;7593;49.006;8.372;2023-04-01T16:37:15;8.90;99.90
14995;DHT22;7593;49.006;8.372;2023-04-01T16:39:47;8.90;99.90
14995;DHT22;7593;49.006;8.372;2023-04-01T16:42:35;8.90;99.90
14995;DHT22;7593;49.006;8.372;2023-04-01T16:45:19;8.90;99.90
14995;DHT22;7593;49.006;8.372;2023-04-01T16:47:51;9.00;99.90
14995;DHT22;7593;49.006;8.372;2023-04-01T16:50:21;9.00;99.90
14995;DHT22;7593;49.006;8.372;2023-04-01T16:52:59;9.00;99.90
14995;DHT22;7593;49.006;8.372;2023-04-01T16:55:43;9.00;99.90
14995;DHT22;7593;49.006;8.372;2023-04-01T16:58:14;9.00;99.90
14995;DHT22;7593;49.006;8.372;2023-04-01T17:00:48;9.00;99.90
14995;DHT22;7593;49.006;8.372;2023-04-01T17:03:20;8.90;99.90
14995;DHT22;7593;49.006;8.372;2023-04-01T17:05:55;8.90;99.90
14995;DHT22;7593;49.006;8.372;2023-04-01T17:08:34;8.90;99.90
14995;DHT22;7593;49.006;8.372;2023-04-01T17:11:10;8.90;99.90
14995;DHT22;7593;49.006;8.372;2023-04-01T17:13:44;8.90;99.90
14995;DHT22;7593;49.006;8.372;2023-04-01T17:16:28;8.90;99.90
14995;DHT22;7593;49.006;8.372;2023-04-01T17:19:05;8.80;99.90
14995;DHT22;7593;49.006;8.372;2023-04-01T17:21:49;8.80;99.90
14995;DHT22;7593;49.006;8.372;2023-04-01T17:24:30;8.80;99.90
14995;DHT22;7593;49.006;8.372;2023-04-01T17:27:06;8.80;99.90
14995;DHT22;7593;49.006;8.372;2023-04-01T17:29:57;8.80;99.90
14995;DHT22;7593;49.006;8.372;2023-04-01T17:32:36;8.80;99.90
14995;DHT22;7593;49.006;8.372;2023-04-01T17:35:09;8.80;99.90
14995;DHT22;7593;49.006;8.372;2023-04-01T17:37:49;8.80;99.90
14995;DHT22;7593;49.006;8.372;2023-04-01T17:40:34;8.80;99.90
14995;DHT22;7593;49.006;8.372;2023-04-01T17:43:12;8.80;99.90
14995;DHT22;7593;49.006;8.372;2023-04-01T17:45:49;8.80;99.90
14995;DHT22;7593;49.006;8.372;2023-04-01T17:48:24;8.80;99.90